Terminal Aerodrome Forecast
Issued by NWS

Home | Current Version | Previous Version | Text Only | Print | Product List | Glossary On
Versions: 1 2 3 4 5 6 7 8 9 10 11 12 13 14 15 16 17 18 19 20 21 22 23 24 25 26 27 28 29 30 31 32 33 34 35 36 37 38 39 40 41 42 43 44 45 46 47 48 49
000
FTUS42 KGSP 261100
TAFHKY
TAF
KHKY 261137Z 2612/2712 00000KT 2SM BR SCT001 SCT250
      TEMPO 2612/2613 1SM BR VV001
     FM261330 25003KT P6SM FEW120 BKN250
     FM261700 23006KT P6SM SCT060
     FM270100 25003KT P6SM SCT120 BKN250=

USA.gov is the U.S. government's official web portal to all federal, state and local government web resources and services.